Terminal Aerodrome Forecast
Issued by NWS

Home | Current Version | Previous Version | Text Only | Print | Product List | Glossary On
Versions: 1 2 3 4 5 6 7 8 9 10 11 12 13 14 15 16 17 18 19 20 21
000
FTUS41 KBOX 290857 AAA
TAFFMH
TAF AMD
KFMH 290857Z 2909/3006 21006KT P6SM SCT010
     FM291300 24009KT P6SM SCT070
     FM292000 29007KT P6SM SCT060
     FM292300 35004KT P6SM SCT060=

USA.gov is the U.S. government's official web portal to all federal, state and local government web resources and services.